Time;durP1;ratioP1;P1;durP2;ratioP2;P2;SDS_P1;SDS_P2;PMS_P1;PMS_P2;Temp;Humidity;BMP_temperature;BMP_pressure;BME280_temperature;BME280_humidity;BME280_pressure;Samples;Min_cycle;Max_cycle;Signal;HPM_P1;HPM_P2
2023/05/21 00:01:48;;;;;;;3.53;3.13;;;;;;;16.81;53.22;101145.84;5100628;28;20283;-70
2023/05/21 00:04:16;;;;;;;4.80;3.38;;;;;;;16.78;53.56;101140.69;5112684;28;20649;-69
2023/05/21 00:06:46;;;;;;;4.13;3.30;;;;;;;16.73;53.88;101139.91;5110736;28;20300;-68
2023/05/21 00:09:14;;;;;;;4.85;3.20;;;;;;;16.67;53.71;101143.47;5111044;28;20204;-70
2023/05/21 00:11:42;;;;;;;6.07;3.38;;;;;;;16.62;53.80;101140.09;5113141;28;20219;-70
2023/05/21 00:14:10;;;;;;;6.03;3.33;;;;;;;16.59;53.75;101139.31;5112357;28;20236;-68
2023/05/21 00:16:38;;;;;;;3.85;3.20;;;;;;;16.54;53.80;101135.94;5113499;28;20227;-70
2023/05/21 00:19:06;;;;;;;6.57;3.40;;;;;;;16.50;53.96;101135.13;5105709;28;20207;-69
2023/05/21 00:21:35;;;;;;;5.65;3.22;;;;;;;16.47;53.12;101142.13;5112072;28;20656;-69
2023/05/21 00:24:04;;;;;;;6.28;3.35;;;;;;;16.43;53.24;101136.13;5110326;28;20196;-70
2023/05/21 00:26:32;;;;;;;3.80;3.08;;;;;;;16.39;53.48;101137.94;5113074;28;20224;-69
2023/05/21 00:29:00;;;;;;;4.60;3.20;;;;;;;16.37;53.89;101142.28;5113507;28;20227;-69
2023/05/21 00:31:28;;;;;;;4.40;3.20;;;;;;;16.34;54.12;101139.72;5112362;28;20207;-69
2023/05/21 00:33:58;;;;;;;5.95;3.42;;;;;;;16.32;53.99;101145.88;5108701;27;20245;-70
2023/05/21 00:36:26;;;;;;;4.97;3.25;;;;;;;16.29;54.00;101145.91;5107167;28;20200;-72
2023/05/21 00:38:57;;;;;;;5.70;3.58;;;;;;;16.25;54.23;101147.72;5107350;28;20631;-71
2023/05/21 00:41:28;;;;;;;8.68;3.33;;;;;;;16.19;54.03;101143.47;5111884;28;20238;-69
2023/05/21 00:43:59;;;;;;;5.40;3.00;;;;;;;16.18;53.68;101146.09;5111459;28;20216;-70
2023/05/21 00:46:28;;;;;;;4.53;3.22;;;;;;;16.16;53.64;101150.47;5111002;28;20208;-69
2023/05/21 00:48:56;;;;;;;4.10;3.00;;;;;;;16.13;53.75;101145.34;5112589;28;20228;-71
2023/05/21 00:51:28;;;;;;;5.07;3.10;;;;;;;16.09;53.52;101144.53;5111166;28;20627;-70
2023/05/21 00:53:57;;;;;;;3.33;2.85;;;;;;;16.10;53.15;101145.38;5112353;28;20200;-70
2023/05/21 00:56:30;;;;;;;3.63;3.03;;;;;;;16.11;52.96;101147.09;5104689;28;20196;-70
2023/05/21 00:58:58;;;;;;;6.38;2.95;;;;;;;16.08;52.86;101150.59;5112170;28;20212;-70
2023/05/21 01:01:26;;;;;;;3.22;2.38;;;;;;;16.08;52.50;101144.53;5108453;28;20199;-69
2023/05/21 01:03:56;;;;;;;3.28;2.95;;;;;;;16.09;52.16;101146.25;5110634;28;20208;-69
2023/05/21 01:06:24;;;;;;;6.07;2.83;;;;;;;16.08;52.26;101154.94;5110700;28;20226;-70
2023/05/21 01:08:52;;;;;;;2.92;2.60;;;;;;;16.09;52.40;101146.25;5103977;28;20644;-70
2023/05/21 01:11:21;;;;;;;4.70;2.70;;;;;;;16.09;52.01;101143.63;5110904;28;20210;-70
2023/05/21 01:13:51;;;;;;;4.07;3.13;;;;;;;16.07;52.19;101146.28;5101054;28;20556;-69
2023/05/21 01:16:20;;;;;;;5.18;2.83;;;;;;;16.05;52.15;101147.19;5110792;28;20200;-69
2023/05/21 01:18:48;;;;;;;3.22;2.83;;;;;;;16.01;52.21;101137.72;5111321;28;20215;-70
2023/05/21 01:21:20;;;;;;;4.97;3.30;;;;;;;16.00;52.19;101143.81;5102819;28;20667;-69
2023/05/21 01:23:49;;;;;;;2.78;2.50;;;;;;;15.94;52.11;101139.56;5110148;28;20553;-69
2023/05/21 01:26:17;;;;;;;5.75;2.80;;;;;;;15.95;51.72;101143.88;5109519;28;20575;-69
2023/05/21 01:28:46;;;;;;;3.20;2.50;;;;;;;15.94;51.30;101140.44;5110812;28;20643;-71
2023/05/21 01:31:31;;;;;;;3.35;3.05;;;;;;;15.91;50.98;101134.44;5111592;28;20627;-70
2023/05/21 01:34:03;;;;;;;4.43;2.85;;;;;;;15.91;51.11;101135.28;5109504;28;20218;-69
2023/05/21 01:36:39;;;;;;;3.35;2.90;;;;;;;15.89;50.98;101131.84;5102665;27;20200;-69
2023/05/21 01:39:16;;;;;;;3.50;2.80;;;;;;;15.90;51.00;101136.16;5105992;28;20512;-70
2023/05/21 01:41:47;;;;;;;5.82;2.65;;;;;;;15.87;50.92;101136.22;5112666;28;20676;-69
2023/05/21 01:44:18;;;;;;;3.78;2.50;;;;;;;15.85;51.13;101134.53;5110995;28;20207;-70
2023/05/21 01:46:46;;;;;;;3.28;2.97;;;;;;;15.82;51.10;101135.41;5110092;28;20231;-69
2023/05/21 01:49:16;;;;;;;4.47;2.75;;;;;;;15.79;51.45;101130.25;5093654;28;21051;-69
2023/05/21 01:51:44;;;;;;;3.60;2.55;;;;;;;15.75;51.77;101140.72;5100454;28;20204;-70
2023/05/21 01:54:14;;;;;;;3.67;2.78;;;;;;;15.72;51.56;101126.03;5108301;28;20199;-70
2023/05/21 01:56:42;;;;;;;6.63;2.70;;;;;;;15.68;51.33;101133.06;5111480;28;20204;-70
2023/05/21 01:59:10;;;;;;;4.05;2.53;;;;;;;15.65;51.72;101133.09;5110753;28;20732;-72
2023/05/21 02:01:38;;;;;;;3.35;2.85;;;;;;;15.63;51.72;101133.97;5109227;28;20737;-71
2023/05/21 02:04:06;;;;;;;4.03;2.70;;;;;;;15.61;51.68;101133.09;5110541;28;20277;-70
2023/05/21 02:06:38;;;;;;;3.22;2.90;;;;;;;15.56;51.50;101130.59;5109320;28;20208;-71
2023/05/21 02:09:06;;;;;;;4.60;2.53;;;;;;;15.55;51.94;101125.41;5109917;28;20995;-70
2023/05/21 02:11:36;;;;;;;3.67;2.97;;;;;;;15.53;51.32;101133.22;5103035;28;20556;-70
2023/05/21 02:14:04;;;;;;;5.63;3.05;;;;;;;15.53;51.33;101132.38;5105345;28;20203;-70
2023/05/21 02:16:32;;;;;;;3.33;2.40;;;;;;;15.54;51.33;101123.69;5097395;28;20204;-70
2023/05/21 02:19:00;;;;;;;11.63;3.13;;;;;;;15.55;50.95;101122.81;5110011;28;20207;-71
2023/05/21 02:21:28;;;;;;;4.30;2.83;;;;;;;15.56;49.92;101127.13;5108908;28;20643;-70
2023/05/21 02:23:56;;;;;;;3.83;2.58;;;;;;;15.58;50.24;101120.19;5110852;28;20639;-70
2023/05/21 02:26:24;;;;;;;5.15;2.88;;;;;;;15.61;49.58;101123.59;5109493;28;20678;-70
2023/05/21 02:28:54;;;;;;;3.97;2.70;;;;;;;15.62;49.70;101120.13;5106584;28;20200;-70
2023/05/21 02:31:22;;;;;;;7.07;2.70;;;;;;;15.65;50.11;101127.00;5109118;28;20199;-70
2023/05/21 02:33:50;;;;;;;4.03;2.28;;;;;;;15.65;50.00;101116.63;5092818;28;20200;-71
2023/05/21 02:36:18;;;;;;;4.97;2.78;;;;;;;15.63;49.64;101120.97;5109486;28;20276;-69
2023/05/21 02:38:46;;;;;;;3.38;2.88;;;;;;;15.65;50.01;101119.22;5110927;28;20659;-69
2023/05/21 02:41:14;;;;;;;3.40;2.83;;;;;;;15.62;50.09;101117.50;5109538;28;20299;-70
2023/05/21 02:43:42;;;;;;;3.70;2.50;;;;;;;15.61;50.38;101120.13;5105367;28;20211;-70
2023/05/21 02:46:12;;;;;;;11.77;2.60;;;;;;;15.57;50.70;101115.84;5110434;28;20212;-70
2023/05/21 02:48:40;;;;;;;3.75;3.03;;;;;;;15.54;50.40;101121.97;5110105;28;20244;-70
2023/05/21 02:51:08;;;;;;;3.70;2.83;;;;;;;15.50;51.01;101119.41;5110322;28;20239;-70
2023/05/21 02:53:36;;;;;;;4.30;2.70;;;;;;;15.45;51.56;101117.75;5109825;28;20249;-70
2023/05/21 02:56:05;;;;;;;4.93;2.80;;;;;;;15.42;51.43;101120.38;5109638;28;20208;-71
2023/05/21 02:58:33;;;;;;;4.63;2.70;;;;;;;15.38;51.47;101129.09;5109980;28;20214;-70
2023/05/21 03:01:01;;;;;;;4.40;3.38;;;;;;;15.32;51.68;101118.81;5103034;28;20319;-71
2023/05/21 03:03:31;;;;;;;5.93;2.65;;;;;;;15.29;52.22;101124.06;5109486;28;20245;-71
2023/05/21 03:05:59;;;;;;;3.95;2.92;;;;;;;15.25;52.23;101117.19;5110316;28;20208;-71
2023/05/21 03:08:27;;;;;;;4.15;3.17;;;;;;;15.21;52.74;101121.56;5108931;28;20697;-71
2023/05/21 03:10:55;;;;;;;3.70;2.83;;;;;;;15.18;52.74;101123.34;5114018;28;20290;-70
2023/05/21 03:13:23;;;;;;;3.58;2.90;;;;;;;15.14;53.42;101122.53;5114543;28;20286;-70
2023/05/21 03:15:54;;;;;;;8.25;2.97;;;;;;;15.13;53.25;101122.53;5114028;27;20651;-69
2023/05/21 03:18:23;;;;;;;3.90;3.03;;;;;;;15.09;53.33;101116.50;5109028;28;20560;-69
2023/05/21 03:20:52;;;;;;;3.87;2.83;;;;;;;15.07;53.73;101112.25;5109399;28;20620;-70
2023/05/21 03:23:20;;;;;;;7.37;2.93;;;;;;;15.05;54.21;101108.78;5114368;28;20559;-70
2023/05/21 03:25:48;;;;;;;3.55;3.03;;;;;;;15.03;54.28;101110.56;5114153;28;20208;-71
2023/05/21 03:28:16;;;;;;;3.97;2.63;;;;;;;14.96;53.91;101100.25;5113223;28;20582;-71
2023/05/21 03:30:45;;;;;;;3.50;2.50;;;;;;;14.96;53.75;101105.44;5110161;28;20228;-70
2023/05/21 03:33:25;;;;;;;5.82;2.90;;;;;;;14.95;54.08;101106.31;5112162;28;20565;-69
2023/05/21 03:35:54;;;;;;;3.70;2.80;;;;;;;14.96;53.83;101105.44;5109262;28;20205;-70
2023/05/21 03:38:22;;;;;;;3.20;2.90;;;;;;;14.94;54.53;101108.94;5106189;28;20214;-70
2023/05/21 03:40:50;;;;;;;5.20;3.00;;;;;;;14.90;54.83;101102.91;5112815;28;20669;-70
2023/05/21 03:43:18;;;;;;;4.65;3.17;;;;;;;14.88;55.02;101109.88;5113531;28;20204;-69
2023/05/21 03:45:46;;;;;;;3.80;2.73;;;;;;;14.85;55.10;101102.13;5113983;28;20202;-70
2023/05/21 03:48:14;;;;;;;6.00;3.30;;;;;;;14.81;55.15;101103.03;5113324;28;20208;-69
2023/05/21 03:50:42;;;;;;;9.73;3.00;;;;;;;14.77;55.77;101103.09;5112227;28;20206;-70
2023/05/21 03:53:12;;;;;;;7.45;3.35;;;;;;;14.79;55.17;101106.53;5084782;28;20543;-70
2023/05/21 03:55:40;;;;;;;4.87;2.97;;;;;;;14.78;55.87;101105.66;5109105;27;20662;-70
2023/05/21 03:58:09;;;;;;;4.03;2.88;;;;;;;14.81;55.58;101110.81;5111502;28;20858;-69
2023/05/21 04:00:37;;;;;;;5.33;3.10;;;;;;;14.81;55.74;101110.81;5112063;28;20310;-71
2023/05/21 04:03:05;;;;;;;6.17;2.90;;;;;;;14.81;55.66;101107.38;5107070;28;20235;-69
2023/05/21 04:05:34;;;;;;;4.18;2.65;;;;;;;14.81;55.23;101108.22;5114077;28;20640;-70
2023/05/21 04:08:02;;;;;;;4.67;2.97;;;;;;;14.84;55.43;101108.19;5105324;28;20223;-69
2023/05/21 04:10:31;;;;;;;5.57;2.87;;;;;;;14.86;55.43;101114.22;5108484;28;20205;-70
2023/05/21 04:12:59;;;;;;;3.22;2.90;;;;;;;14.92;54.75;101119.34;5111843;28;20200;-68
2023/05/21 04:15:27;;;;;;;6.18;2.92;;;;;;;14.96;54.54;101121.00;5113091;28;20674;-70
2023/05/21 04:17:55;;;;;;;4.80;3.13;;;;;;;15.01;54.72;101112.31;5111678;27;20215;-71
2023/05/21 04:20:24;;;;;;;5.50;2.90;;;;;;;15.05;53.95;101113.97;5112160;28;20655;-70
2023/05/21 04:22:51;;;;;;;3.27;2.70;;;;;;;15.09;53.90;101115.66;5104332;28;20204;-71
2023/05/21 04:25:20;;;;;;;4.40;3.00;;;;;;;15.17;54.26;101108.63;5112529;28;20253;-70
2023/05/21 04:27:50;;;;;;;4.45;2.92;;;;;;;15.31;54.31;101108.44;5108230;28;20220;-69
2023/05/21 04:30:18;;;;;;;5.13;3.58;;;;;;;15.42;53.23;101104.81;5107903;28;20203;-72
2023/05/21 04:32:47;;;;;;;4.55;3.10;;;;;;;15.48;53.07;101097.81;5112708;28;20323;-70
2023/05/21 04:35:16;;;;;;;3.40;3.05;;;;;;;15.56;53.00;101099.41;5107417;28;20257;-70
2023/05/21 04:37:44;;;;;;;4.55;3.13;;;;;;;15.65;52.74;101093.22;5112787;28;20546;-71
2023/05/21 04:40:16;;;;;;;7.47;2.95;;;;;;;15.77;52.56;101090.47;5113135;28;20204;-69
2023/05/21 04:42:47;;;;;;;6.20;2.63;;;;;;;15.91;52.39;101091.09;5111413;27;20199;-70
2023/05/21 04:45:16;;;;;;;2.95;2.63;;;;;;;16.02;52.20;101088.31;5111758;28;20727;-71
2023/05/21 04:47:44;;;;;;;2.95;2.65;;;;;;;16.19;51.47;101093.19;5106815;28;20192;-70
2023/05/21 04:50:13;;;;;;;4.28;2.90;;;;;;;16.27;50.93;101090.47;5111639;28;20203;-70
2023/05/21 04:52:41;;;;;;;3.38;2.85;;;;;;;16.32;50.84;101084.31;5112143;28;20287;-70
2023/05/21 04:55:10;;;;;;;3.72;2.85;;;;;;;16.48;50.55;101086.59;5112057;28;20204;-70
2023/05/21 04:57:38;;;;;;;2.80;2.50;;;;;;;16.62;49.86;101084.59;5111382;28;20540;-69
2023/05/21 05:00:07;;;;;;;3.67;2.78;;;;;;;16.80;49.06;101084.25;5099860;28;20704;-70
2023/05/21 05:02:37;;;;;;;2.97;2.58;;;;;;;17.15;48.39;101085.25;5109119;28;20219;-69
2023/05/21 05:05:05;;;;;;;2.67;2.38;;;;;;;17.77;47.10;101076.88;5104910;28;20227;-70
2023/05/21 05:07:33;;;;;;;5.45;2.55;;;;;;;18.65;45.18;101078.88;5110780;28;20767;-73
2023/05/21 05:10:02;;;;;;;3.10;2.80;;;;;;;19.29;43.02;101077.03;5111082;28;20211;-73
2023/05/21 05:12:29;;;;;;;3.50;2.70;;;;;;;19.83;41.28;101079.69;5108937;28;20218;-72
2023/05/21 05:14:57;;;;;;;6.32;2.97;;;;;;;20.48;40.22;101080.00;5110820;28;20222;-74
2023/05/21 05:17:26;;;;;;;3.40;2.53;;;;;;;21.32;38.60;101076.00;5110249;28;20208;-72
2023/05/21 05:19:55;;;;;;;4.13;2.47;;;;;;;22.30;36.85;101071.09;5106663;28;20200;-73
2023/05/21 05:22:24;;;;;;;3.78;2.47;;;;;;;23.51;34.50;101057.59;5109018;28;20709;-73
2023/05/21 05:24:51;;;;;;;4.35;2.42;;;;;;;24.70;32.34;101066.41;5106550;28;20653;-72
2023/05/21 05:27:19;;;;;;;3.15;2.50;;;;;;;25.92;30.27;101064.81;5110336;28;20239;-71
2023/05/21 05:29:47;;;;;;;4.70;2.25;;;;;;;27.03;28.42;101052.69;5111597;28;20765;-72
2023/05/21 05:32:15;;;;;;;2.67;2.38;;;;;;;28.26;27.09;101056.84;5109661;28;20288;-71
2023/05/21 05:34:46;;;;;;;4.25;2.08;;;;;;;29.34;25.04;101056.16;5111842;28;20227;-71
2023/05/21 05:37:15;;;;;;;4.10;2.38;;;;;;;30.21;23.88;101050.53;5108740;28;20200;-71
2023/05/21 05:39:43;;;;;;;2.25;2.10;;;;;;;30.96;23.03;101045.41;5103362;28;20210;-72
2023/05/21 05:42:11;;;;;;;2.30;2.10;;;;;;;31.53;22.32;101046.06;5110702;28;20199;-70
2023/05/21 05:44:39;;;;;;;3.38;1.88;;;;;;;32.30;21.78;101044.88;5112373;28;20208;-72
2023/05/21 05:47:09;;;;;;;2.78;2.00;;;;;;;33.10;20.80;101042.19;5110639;28;20199;-71
2023/05/21 05:49:37;;;;;;;3.38;2.08;;;;;;;33.64;19.50;101045.28;5106938;28;20559;-72
2023/05/21 05:52:06;;;;;;;2.72;1.65;;;;;;;34.01;19.33;101039.16;5109870;28;20647;-71
2023/05/21 05:54:35;;;;;;;3.53;2.00;;;;;;;34.39;18.49;101048.84;5097586;28;20206;-74
2023/05/21 05:57:03;;;;;;;2.35;1.83;;;;;;;35.03;18.16;101041.78;5111681;28;20616;-72
2023/05/21 05:59:32;;;;;;;6.18;1.85;;;;;;;35.83;17.53;101037.28;5107281;28;20196;-71
2023/05/21 06:02:00;;;;;;;3.10;1.90;;;;;;;36.42;17.16;101034.75;5110323;28;20212;-72
2023/05/21 06:04:28;;;;;;;4.50;2.10;;;;;;;36.52;16.62;101030.94;5109310;27;20203;-71
2023/05/21 06:06:57;;;;;;;2.13;1.88;;;;;;;36.71;16.45;101037.03;5110556;28;20196;-71
2023/05/21 06:09:25;;;;;;;2.15;1.90;;;;;;;36.60;16.39;101037.34;5108966;28;20574;-73
2023/05/21 06:11:54;;;;;;;2.92;2.08;;;;;;;36.51;16.40;101041.84;5110545;28;20210;-71
2023/05/21 06:14:22;;;;;;;3.17;2.00;;;;;;;36.67;16.53;101038.38;5102704;28;20212;-71
2023/05/21 06:16:50;;;;;;;3.55;2.20;;;;;;;37.13;16.07;101033.47;5111070;28;20211;-72
2023/05/21 06:19:18;;;;;;;3.00;2.17;;;;;;;37.44;15.60;101037.16;5107069;28;20196;-71
2023/05/21 06:21:47;;;;;;;4.97;2.20;;;;;;;37.46;15.84;101039.72;5105922;28;20215;-72
2023/05/21 06:24:15;;;;;;;3.17;1.73;;;;;;;37.52;15.80;101043.56;5111022;28;20521;-71
2023/05/21 06:26:43;;;;;;;2.85;2.25;;;;;;;37.69;15.65;101040.69;5107443;28;20705;-71
2023/05/21 06:29:12;;;;;;;1.85;1.67;;;;;;;37.98;14.91;101038.47;5108781;28;20674;-72
2023/05/21 06:31:42;;;;;;;4.68;2.05;;;;;;;38.29;14.40;101036.66;5106199;28;20790;-72
2023/05/21 06:34:10;;;;;;;4.85;1.92;;;;;;;38.21;15.12;101036.69;5106338;28;20195;-73
2023/05/21 06:36:38;;;;;;;4.28;1.90;;;;;;;38.34;15.14;101031.63;5106329;28;20662;-72
2023/05/21 06:39:06;;;;;;;1.80;1.67;;;;;;;38.51;14.74;101036.94;5106411;28;20203;-71
2023/05/21 06:41:34;;;;;;;3.22;1.88;;;;;;;38.73;14.58;101028.03;5111098;28;20706;-71
2023/05/21 06:44:02;;;;;;;5.10;1.85;;;;;;;38.83;14.81;101028.69;5113973;28;20208;-71
2023/05/21 06:46:32;;;;;;;2.22;1.90;;;;;;;38.58;14.82;101029.81;5116080;28;20681;-71
2023/05/21 06:49:00;;;;;;;2.53;1.70;;;;;;;38.69;14.30;101028.59;5106465;28;20270;-71
2023/05/21 06:51:28;;;;;;;5.90;2.05;;;;;;;38.48;14.57;101029.19;5114265;28;20203;-70
2023/05/21 06:53:56;;;;;;;3.03;1.90;;;;;;;38.16;14.75;101025.63;5106481;27;20211;-70
2023/05/21 06:56:25;;;;;;;6.03;2.10;;;;;;;37.80;15.73;101019.81;5100742;28;20541;-71
2023/05/21 06:58:53;;;;;;;3.17;1.88;;;;;;;37.54;15.80;101020.03;5105310;28;20651;-71
2023/05/21 07:01:22;;;;;;;2.33;2.13;;;;;;;37.32;15.97;101022.38;5104403;27;20204;-71
2023/05/21 07:03:51;;;;;;;2.75;2.25;;;;;;;37.38;15.14;101013.63;5113511;28;20614;-73
2023/05/21 07:06:19;;;;;;;2.10;1.90;;;;;;;37.46;15.59;101019.03;5112986;28;20208;-71
2023/05/21 07:08:48;;;;;;;2.60;2.00;;;;;;;37.09;16.14;101014.13;5102146;27;20199;-72
2023/05/21 07:11:16;;;;;;;3.67;1.75;;;;;;;36.10;16.43;101016.66;5114509;27;20200;-71
2023/05/21 07:13:44;;;;;;;2.47;1.92;;;;;;;35.08;17.74;101016.22;5104474;28;20215;-72
2023/05/21 07:16:12;;;;;;;4.47;2.00;;;;;;;34.75;18.57;101011.50;5105190;27;20291;-71
2023/05/21 07:18:40;;;;;;;4.78;2.13;;;;;;;34.95;17.78;101007.69;5114959;28;20996;-72
2023/05/21 07:21:10;;;;;;;5.43;1.88;;;;;;;35.15;17.57;101012.94;5101215;27;20293;-68
2023/05/21 07:23:38;;;;;;;2.95;2.10;;;;;;;34.60;17.58;101012.00;5103789;28;20580;-70
2023/05/21 07:26:06;;;;;;;2.55;1.92;;;;;;;33.70;18.14;101009.13;5097750;27;20215;-72
2023/05/21 07:28:34;;;;;;;3.75;2.03;;;;;;;32.94;19.25;101012.50;5110714;28;20711;-70
2023/05/21 07:31:02;;;;;;;4.63;2.05;;;;;;;32.84;19.80;101012.44;5113355;28;20222;-71
2023/05/21 07:33:30;;;;;;;4.10;2.15;;;;;;;33.38;19.66;101008.41;5114153;28;20683;-70
2023/05/21 07:36:00;;;;;;;5.13;2.03;;;;;;;33.30;19.22;101002.94;5112395;28;20639;-69
2023/05/21 07:38:29;;;;;;;3.78;1.52;;;;;;;32.94;19.54;101012.50;5114138;28;20305;-69
2023/05/21 07:40:57;;;;;;;2.55;1.80;;;;;;;32.70;18.74;101004.88;5112757;28;20259;-70
2023/05/21 07:43:25;;;;;;;5.15;1.98;;;;;;;32.62;19.21;101002.00;5098488;28;20636;-71
2023/05/21 07:45:53;;;;;;;2.92;1.85;;;;;;;32.48;18.67;101003.28;5111551;28;20192;-71
2023/05/21 07:48:21;;;;;;;3.25;2.00;;;;;;;32.45;19.16;101006.19;5107579;28;20203;-71
2023/05/21 07:50:51;;;;;;;2.05;1.70;;;;;;;32.71;19.03;101011.88;5110401;28;20200;-71
2023/05/21 07:53:19;;;;;;;2.22;1.42;;;;;;;32.72;17.82;101000.22;5109933;28;20203;-71
2023/05/21 07:55:48;;;;;;;2.20;1.70;;;;;;;32.69;18.73;100995.97;5110828;28;20291;-71
2023/05/21 07:58:17;;;;;;;3.60;2.25;;;;;;;32.78;19.97;100991.66;5111020;28;20203;-69
2023/05/21 08:00:47;;;;;;;3.08;1.73;;;;;;;32.69;18.96;100987.97;5103018;28;20322;-71
2023/05/21 08:03:16;;;;;;;4.03;1.75;;;;;;;31.62;19.58;100991.16;5111856;28;20200;-70
2023/05/21 08:05:47;;;;;;;2.00;1.80;;;;;;;30.15;21.28;100995.16;5111619;28;20219;-70
2023/05/21 08:08:17;;;;;;;2.38;1.73;;;;;;;28.88;22.54;101000.31;5104583;28;20207;-70
2023/05/21 08:10:46;;;;;;;2.15;1.60;;;;;;;27.78;23.39;101000.97;5111546;28;20238;-68
2023/05/21 08:13:16;;;;;;;2.75;1.60;;;;;;;26.82;24.32;100996.75;5109992;28;20663;-69
2023/05/21 08:15:44;;;;;;;3.47;1.80;;;;;;;26.13;25.47;100988.69;5107240;28;20615;-68
2023/05/21 08:18:12;;;;;;;2.35;1.35;;;;;;;25.59;26.46;101001.63;5107631;28;20208;-68
2023/05/21 08:20:41;;;;;;;2.47;1.52;;;;;;;25.05;26.52;100999.41;5108513;28;20254;-69
2023/05/21 08:23:09;;;;;;;2.70;1.63;;;;;;;24.79;27.13;100994.75;5107175;28;20196;-68
2023/05/21 08:25:37;;;;;;;3.75;1.92;;;;;;;24.63;27.45;100992.09;5082176;28;20196;-68
2023/05/21 08:28:05;;;;;;;3.72;1.70;;;;;;;24.56;28.32;100996.03;5103197;28;20258;-70
2023/05/21 08:30:35;;;;;;;2.97;1.77;;;;;;;24.38;27.43;100991.75;5111362;28;20677;-69
2023/05/21 08:33:03;;;;;;;2.33;1.20;;;;;;;24.18;27.93;100990.16;5112562;28;20240;-69
2023/05/21 08:35:31;;;;;;;3.25;1.60;;;;;;;24.17;27.57;100985.81;5113927;27;20283;-68
2023/05/21 08:37:59;;;;;;;2.33;1.35;;;;;;;24.17;27.61;100985.81;5107173;28;20945;-71
2023/05/21 08:40:27;;;;;;;3.63;1.80;;;;;;;24.12;28.21;100991.34;5103691;27;20602;-68
2023/05/21 08:42:55;;;;;;;2.10;1.70;;;;;;;24.07;28.15;100988.09;5101790;28;20208;-66
2023/05/21 08:45:24;;;;;;;9.10;3.55;;;;;;;24.16;28.29;100986.78;5107591;28;20196;-69
2023/05/21 08:47:56;;;;;;;2.35;1.90;;;;;;;24.29;28.20;100998.31;5104311;27;20781;-70
2023/05/21 08:50:27;;;;;;;1.95;1.60;;;;;;;24.38;28.05;100987.31;5102423;28;20208;-69
2023/05/21 08:52:57;;;;;;;2.72;1.33;;;;;;;24.39;27.84;100991.66;5100416;28;20207;-68
2023/05/21 08:55:26;;;;;;;3.75;1.60;;;;;;;24.45;28.13;101001.00;5106834;28;20615;-69
2023/05/21 08:57:57;;;;;;;3.13;1.70;;;;;;;24.41;27.00;100991.56;5102769;28;20218;-68
2023/05/21 09:00:25;;;;;;;5.68;1.55;;;;;;;24.42;27.41;100988.03;5096872;28;20345;-68
2023/05/21 09:02:55;;;;;;;1.70;1.60;;;;;;;24.34;26.45;100998.94;5107246;28;20203;-70
2023/05/21 09:05:24;;;;;;;1.88;1.52;;;;;;;24.23;27.49;100993.38;5102272;28;20208;-72
2023/05/21 09:08:04;;;;;;;4.95;1.50;;;;;;;24.20;27.05;100991.78;5101403;28;20208;-72
2023/05/21 09:10:36;;;;;;;5.07;1.30;;;;;;;24.18;27.11;101000.69;5095536;27;20256;-74
2023/05/21 09:13:06;;;;;;;2.33;1.58;;;;;;;24.15;27.85;100990.31;5092260;28;20646;-75
2023/05/21 09:15:34;;;;;;;1.42;1.33;;;;;;;24.17;27.85;100994.56;5105376;28;20253;-72
2023/05/21 09:18:04;;;;;;;2.13;1.70;;;;;;;24.31;27.38;100991.22;5108982;28;20204;-72
2023/05/21 09:20:32;;;;;;;3.88;1.88;;;;;;;24.41;27.84;100981.03;5108482;28;20219;-73
2023/05/21 09:23:03;;;;;;;1.95;1.67;;;;;;;24.53;27.41;100981.25;5106585;28;20199;-74
2023/05/21 09:25:31;;;;;;;1.73;1.38;;;;;;;24.67;28.12;100974.34;5100799;28;20637;-77
2023/05/21 09:27:59;;;;;;;2.55;1.90;;;;;;;24.81;27.06;100970.00;5095081;28;20318;-75
2023/05/21 09:30:28;;;;;;;2.60;1.50;;;;;;;24.80;25.83;100978.84;5103210;28;20204;-71
2023/05/21 09:33:00;;;;;;;2.63;1.38;;;;;;;24.86;26.40;100976.81;5104385;28;20476;-68
2023/05/21 09:35:30;;;;;;;2.33;1.60;;;;;;;24.82;25.81;100973.50;5106016;28;20196;-74
2023/05/21 09:37:58;;;;;;;1.92;1.60;;;;;;;24.85;25.88;100962.75;5105155;28;20215;-70
2023/05/21 09:40:26;;;;;;;2.35;1.80;;;;;;;24.92;26.71;100973.81;5108743;28;20573;-73
2023/05/21 09:42:55;;;;;;;2.83;1.60;;;;;;;25.31;26.25;100965.44;5102217;28;20458;-76
2023/05/21 09:45:25;;;;;;;1.70;1.60;;;;;;;26.07;25.61;100957.38;5107642;28;20253;-68
2023/05/21 09:47:54;;;;;;;4.03;1.85;;;;;;;27.26;24.46;100959.47;5101241;27;20239;-69
2023/05/21 09:50:23;;;;;;;1.98;1.55;;;;;;;28.21;22.57;100968.00;5105484;27;20795;-62
2023/05/21 09:52:54;;;;;;;2.42;1.77;;;;;;;28.74;21.87;100960.66;5102881;28;20216;-65
2023/05/21 09:55:23;;;;;;;1.88;1.65;;;;;;;29.14;21.59;100953.28;5108990;28;20261;-64
2023/05/21 09:57:51;;;;;;;3.88;1.58;;;;;;;30.36;20.40;100948.28;5107677;28;21190;-66
2023/05/21 10:00:21;;;;;;;2.28;1.73;;;;;;;31.83;19.07;100952.00;5105063;28;20204;-65
2023/05/21 10:02:50;;;;;;;6.97;2.03;;;;;;;33.64;18.14;100947.22;5108366;28;20230;-63
2023/05/21 10:05:18;;;;;;;3.60;1.90;;;;;;;34.84;16.35;100943.66;5103059;28;20208;-62
2023/05/21 10:07:50;;;;;;;3.53;1.45;;;;;;;35.24;15.17;100947.69;5094225;28;20200;-64
2023/05/21 10:10:21;;;;;;;4.13;1.83;;;;;;;35.60;15.79;100942.25;5109244;28;20210;-64
2023/05/21 10:13:00;;;;;;;2.80;1.60;;;;;;;36.34;15.98;100940.75;5105575;28;20558;-62
2023/05/21 10:15:31;;;;;;;2.75;1.75;;;;;;;36.91;15.11;100941.72;5104477;28;20202;-63
2023/05/21 10:18:00;;;;;;;4.13;1.55;;;;;;;37.56;14.01;100940.00;5106769;27;20578;-63
2023/05/21 10:20:29;;;;;;;3.13;1.48;;;;;;;37.66;13.83;100928.03;5100151;28;20677;-68
2023/05/21 10:22:58;;;;;;;2.45;1.58;;;;;;;38.14;13.57;100930.75;5107980;28;20229;-68
2023/05/21 10:25:30;;;;;;;1.75;1.45;;;;;;;38.27;13.55;100927.50;5110494;28;20202;-70
2023/05/21 10:27:58;;;;;;;2.15;1.67;;;;;;;37.97;13.93;100931.84;5097641;28;20196;-70
2023/05/21 10:30:27;;;;;;;4.40;1.65;;;;;;;38.06;13.71;100925.41;5102703;28;20558;-70
2023/05/21 10:32:56;;;;;;;2.85;1.77;;;;;;;38.08;13.25;100920.69;5100332;28;20228;-69
2023/05/21 10:35:24;;;;;;;2.47;1.50;;;;;;;38.27;13.41;100920.25;5107252;28;20295;-68
2023/05/21 10:37:54;;;;;;;1.40;1.30;;;;;;;38.03;13.26;100914.97;5109235;28;20281;-68
2023/05/21 10:40:22;;;;;;;2.10;1.20;;;;;;;37.19;13.16;100914.50;5099791;28;20199;-69
2023/05/21 10:43:19;;;;;;;1.45;1.30;;;;;;;36.80;13.39;100914.34;5108423;28;20211;-69
2023/05/21 10:46:01;;;;;;;3.70;1.77;;;;;;;36.81;13.94;100916.84;5110407;28;20206;-71
2023/05/21 10:48:45;;;;;;;2.33;1.40;;;;;;;36.91;13.32;100911.31;5110049;28;20266;-68
2023/05/21 10:51:22;;;;;;;2.75;1.60;;;;;;;35.97;14.50;100918.63;5111284;28;20196;-67
2023/05/21 10:54:30;;;;;;;4.35;1.60;;;;;;;35.99;15.00;100921.19;5111685;28;20204;-71
2023/05/21 10:57:11;;;;;;;2.67;1.88;;;;;;;36.01;15.04;100924.53;5107574;28;20212;-63
2023/05/21 10:59:43;;;;;;;3.00;1.77;;;;;;;36.03;15.01;100918.03;5107835;28;20207;-68
2023/05/21 11:02:13;;;;;;;2.95;1.50;;;;;;;36.31;14.91;100904.38;5109755;28;20223;-67
2023/05/21 11:04:47;;;;;;;2.25;1.55;;;;;;;35.90;14.54;100906.91;5110433;28;20199;-71
2023/05/21 11:07:23;;;;;;;3.88;1.67;;;;;;;35.28;14.69;100906.19;5111349;28;20223;-72
2023/05/21 11:09:51;;;;;;;2.80;1.55;;;;;;;35.04;15.09;100909.53;5109474;28;20237;-70
2023/05/21 11:12:22;;;;;;;1.92;1.67;;;;;;;34.54;16.15;100902.03;5110232;28;20287;-66
2023/05/21 11:14:57;;;;;;;2.53;1.60;;;;;;;34.29;16.04;100899.09;5107392;28;20651;-65
2023/05/21 11:17:40;;;;;;;3.38;1.85;;;;;;;34.34;16.33;100890.59;5110983;28;20223;-69
2023/05/21 11:20:12;;;;;;;2.05;1.52;;;;;;;34.20;16.07;100891.09;5111005;28;20222;-70
2023/05/21 11:22:40;;;;;;;2.97;1.60;;;;;;;33.45;15.86;100899.13;5109633;28;20220;-65
2023/05/21 11:25:08;;;;;;;2.20;1.63;;;;;;;33.08;17.00;100897.25;5111075;28;20208;-69
2023/05/21 11:27:38;;;;;;;2.13;1.58;;;;;;;32.94;17.19;100892.34;5111267;28;20555;-67
2023/05/21 11:30:09;;;;;;;1.95;1.60;;;;;;;32.85;17.35;100882.50;5112060;28;20210;-65
2023/05/21 11:32:38;;;;;;;2.50;1.65;;;;;;;32.76;17.25;100878.84;5106635;27;20238;-69
2023/05/21 11:35:07;;;;;;;2.85;1.73;;;;;;;32.45;17.43;100884.31;5114754;28;20723;-71